sensor_id;sensor_type;location;lat;lon;timestamp;P1;durP1;ratioP1;P2;durP2;ratioP2
15425;SDS011;7812;50.072;7.036;2023-04-24T00:00:56;0.50;;;0.50;;
15425;SDS011;7812;50.072;7.036;2023-04-24T00:03:25;0.80;;;0.60;;
15425;SDS011;7812;50.072;7.036;2023-04-24T00:05:53;1.00;;;0.50;;
15425;SDS011;7812;50.072;7.036;2023-04-24T00:08:19;0.70;;;0.60;;
15425;SDS011;7812;50.072;7.036;2023-04-24T00:10:45;1.13;;;0.60;;
15425;SDS011;7812;50.072;7.036;2023-04-24T00:13:11;1.80;;;0.60;;
15425;SDS011;7812;50.072;7.036;2023-04-24T00:15:37;0.50;;;0.50;;
15425;SDS011;7812;50.072;7.036;2023-04-24T00:18:03;0.60;;;0.60;;
15425;SDS011;7812;50.072;7.036;2023-04-24T00:20:29;0.50;;;0.50;;
15425;SDS011;7812;50.072;7.036;2023-04-24T00:22:54;0.73;;;0.53;;
15425;SDS011;7812;50.072;7.036;2023-04-24T00:25:20;1.30;;;0.70;;
15425;SDS011;7812;50.072;7.036;2023-04-24T00:27:46;0.40;;;0.40;;
15425;SDS011;7812;50.072;7.036;2023-04-24T00:30:12;0.70;;;0.60;;
15425;SDS011;7812;50.072;7.036;2023-04-24T00:32:37;0.60;;;0.50;;
15425;SDS011;7812;50.072;7.036;2023-04-24T00:35:03;2.07;;;0.57;;
15425;SDS011;7812;50.072;7.036;2023-04-24T00:37:30;0.50;;;0.50;;
15425;SDS011;7812;50.072;7.036;2023-04-24T00:39:56;0.90;;;0.90;;
15425;SDS011;7812;50.072;7.036;2023-04-24T00:42:22;1.40;;;0.60;;
15425;SDS011;7812;50.072;7.036;2023-04-24T00:44:48;1.13;;;0.60;;
15425;SDS011;7812;50.072;7.036;2023-04-24T00:47:14;0.73;;;0.60;;
15425;SDS011;7812;50.072;7.036;2023-04-24T00:49:40;0.70;;;0.60;;
15425;SDS011;7812;50.072;7.036;2023-04-24T00:52:06;0.60;;;0.60;;
15425;SDS011;7812;50.072;7.036;2023-04-24T00:54:34;1.10;;;0.70;;
15425;SDS011;7812;50.072;7.036;2023-04-24T00:57:02;0.60;;;0.60;;
15425;SDS011;7812;50.072;7.036;2023-04-24T00:59:28;0.83;;;0.80;;
15425;SDS011;7812;50.072;7.036;2023-04-24T01:01:54;2.20;;;0.80;;
15425;SDS011;7812;50.072;7.036;2023-04-24T01:04:21;0.93;;;0.80;;
15425;SDS011;7812;50.072;7.036;2023-04-24T01:06:47;0.80;;;0.80;;
15425;SDS011;7812;50.072;7.036;2023-04-24T01:09:15;0.87;;;0.77;;
15425;SDS011;7812;50.072;7.036;2023-04-24T01:11:41;1.30;;;0.90;;
15425;SDS011;7812;50.072;7.036;2023-04-24T01:14:08;1.17;;;0.97;;
15425;SDS011;7812;50.072;7.036;2023-04-24T01:16:34;0.73;;;0.73;;
15425;SDS011;7812;50.072;7.036;2023-04-24T01:19:00;0.90;;;0.90;;
15425;SDS011;7812;50.072;7.036;2023-04-24T01:21:27;1.93;;;1.07;;
15425;SDS011;7812;50.072;7.036;2023-04-24T01:23:55;1.10;;;1.00;;
15425;SDS011;7812;50.072;7.036;2023-04-24T01:26:22;2.80;;;1.07;;
15425;SDS011;7812;50.072;7.036;2023-04-24T01:28:50;1.77;;;0.93;;
15425;SDS011;7812;50.072;7.036;2023-04-24T01:31:16;1.83;;;1.13;;
15425;SDS011;7812;50.072;7.036;2023-04-24T01:33:42;1.30;;;1.20;;
15425;SDS011;7812;50.072;7.036;2023-04-24T01:36:08;1.60;;;1.30;;
15425;SDS011;7812;50.072;7.036;2023-04-24T01:38:36;1.83;;;1.20;;
15425;SDS011;7812;50.072;7.036;2023-04-24T01:41:01;1.60;;;1.50;;
15425;SDS011;7812;50.072;7.036;2023-04-24T01:43:28;1.83;;;1.20;;
15425;SDS011;7812;50.072;7.036;2023-04-24T01:45:54;1.70;;;1.50;;
15425;SDS011;7812;50.072;7.036;2023-04-24T01:48:20;1.83;;;1.33;;
15425;SDS011;7812;50.072;7.036;2023-04-24T01:50:47;1.57;;;1.47;;
15425;SDS011;7812;50.072;7.036;2023-04-24T01:53:12;1.80;;;1.40;;
15425;SDS011;7812;50.072;7.036;2023-04-24T01:55:38;1.60;;;1.50;;
15425;SDS011;7812;50.072;7.036;2023-04-24T01:58:04;1.63;;;1.53;;
15425;SDS011;7812;50.072;7.036;2023-04-24T02:00:30;2.60;;;1.83;;
15425;SDS011;7812;50.072;7.036;2023-04-24T02:02:56;1.67;;;1.57;;
15425;SDS011;7812;50.072;7.036;2023-04-24T02:05:21;1.77;;;1.60;;
15425;SDS011;7812;50.072;7.036;2023-04-24T02:07:47;2.03;;;1.77;;
15425;SDS011;7812;50.072;7.036;2023-04-24T02:10:13;2.83;;;1.70;;
15425;SDS011;7812;50.072;7.036;2023-04-24T02:12:39;1.50;;;1.40;;
15425;SDS011;7812;50.072;7.036;2023-04-24T02:15:05;2.80;;;1.50;;
15425;SDS011;7812;50.072;7.036;2023-04-24T02:17:32;2.63;;;1.50;;
15425;SDS011;7812;50.072;7.036;2023-04-24T02:19:57;1.90;;;1.50;;
15425;SDS011;7812;50.072;7.036;2023-04-24T02:22:23;1.90;;;1.80;;
15425;SDS011;7812;50.072;7.036;2023-04-24T02:24:49;1.87;;;1.77;;
15425;SDS011;7812;50.072;7.036;2023-04-24T02:27:15;1.77;;;1.57;;
15425;SDS011;7812;50.072;7.036;2023-04-24T02:29:40;1.63;;;1.53;;
15425;SDS011;7812;50.072;7.036;2023-04-24T02:32:06;1.70;;;1.60;;
15425;SDS011;7812;50.072;7.036;2023-04-24T02:34:31;1.87;;;1.70;;
15425;SDS011;7812;50.072;7.036;2023-04-24T02:36:57;1.80;;;1.70;;
15425;SDS011;7812;50.072;7.036;2023-04-24T02:39:24;1.80;;;1.70;;
15425;SDS011;7812;50.072;7.036;2023-04-24T02:41:50;3.33;;;1.90;;
15425;SDS011;7812;50.072;7.036;2023-04-24T02:44:16;2.23;;;1.70;;
15425;SDS011;7812;50.072;7.036;2023-04-24T02:46:42;5.07;;;1.70;;
15425;SDS011;7812;50.072;7.036;2023-04-24T02:49:08;2.03;;;1.80;;
15425;SDS011;7812;50.072;7.036;2023-04-24T02:51:33;2.23;;;1.70;;
15425;SDS011;7812;50.072;7.036;2023-04-24T02:53:59;2.23;;;1.90;;
15425;SDS011;7812;50.072;7.036;2023-04-24T02:56:25;2.10;;;1.60;;
15425;SDS011;7812;50.072;7.036;2023-04-24T02:58:51;2.80;;;1.87;;
15425;SDS011;7812;50.072;7.036;2023-04-24T03:01:16;2.73;;;1.60;;
15425;SDS011;7812;50.072;7.036;2023-04-24T03:03:42;1.70;;;1.60;;
15425;SDS011;7812;50.072;7.036;2023-04-24T03:06:08;2.57;;;2.10;;
15425;SDS011;7812;50.072;7.036;2023-04-24T03:08:34;2.60;;;2.40;;
15425;SDS011;7812;50.072;7.036;2023-04-24T03:11:01;4.83;;;2.23;;
15425;SDS011;7812;50.072;7.036;2023-04-24T03:13:27;2.90;;;2.60;;
15425;SDS011;7812;50.072;7.036;2023-04-24T03:15:53;4.70;;;2.50;;
15425;SDS011;7812;50.072;7.036;2023-04-24T03:18:19;2.30;;;2.10;;
15425;SDS011;7812;50.072;7.036;2023-04-24T03:20:45;3.30;;;2.97;;
15425;SDS011;7812;50.072;7.036;2023-04-24T03:23:11;3.00;;;2.70;;
15425;SDS011;7812;50.072;7.036;2023-04-24T03:25:37;4.43;;;2.53;;
15425;SDS011;7812;50.072;7.036;2023-04-24T03:28:03;2.77;;;2.57;;
15425;SDS011;7812;50.072;7.036;2023-04-24T03:30:29;3.60;;;2.90;;
15425;SDS011;7812;50.072;7.036;2023-04-24T03:32:55;3.10;;;2.80;;
15425;SDS011;7812;50.072;7.036;2023-04-24T03:35:21;3.87;;;3.47;;
15425;SDS011;7812;50.072;7.036;2023-04-24T03:37:47;4.30;;;2.70;;
15425;SDS011;7812;50.072;7.036;2023-04-24T03:40:13;2.90;;;2.70;;
15425;SDS011;7812;50.072;7.036;2023-04-24T03:42:39;3.03;;;2.40;;
15425;SDS011;7812;50.072;7.036;2023-04-24T03:45:05;3.50;;;2.63;;
15425;SDS011;7812;50.072;7.036;2023-04-24T03:47:31;3.70;;;2.53;;
15425;SDS011;7812;50.072;7.036;2023-04-24T03:50:01;3.17;;;2.87;;
15425;SDS011;7812;50.072;7.036;2023-04-24T03:52:27;2.80;;;2.43;;
15425;SDS011;7812;50.072;7.036;2023-04-24T03:54:53;3.13;;;2.70;;
15425;SDS011;7812;50.072;7.036;2023-04-24T03:57:18;2.73;;;2.33;;
15425;SDS011;7812;50.072;7.036;2023-04-24T03:59:44;2.60;;;2.40;;
15425;SDS011;7812;50.072;7.036;2023-04-24T04:02:10;3.97;;;3.47;;
15425;SDS011;7812;50.072;7.036;2023-04-24T04:04:35;3.50;;;3.17;;
15425;SDS011;7812;50.072;7.036;2023-04-24T04:07:01;3.67;;;3.27;;
15425;SDS011;7812;50.072;7.036;2023-04-24T04:09:28;3.40;;;3.10;;
15425;SDS011;7812;50.072;7.036;2023-04-24T04:11:53;5.43;;;3.30;;
15425;SDS011;7812;50.072;7.036;2023-04-24T04:14:20;4.70;;;3.40;;
15425;SDS011;7812;50.072;7.036;2023-04-24T04:16:46;3.77;;;3.37;;
15425;SDS011;7812;50.072;7.036;2023-04-24T04:19:12;6.83;;;4.03;;
15425;SDS011;7812;50.072;7.036;2023-04-24T04:21:37;4.17;;;3.73;;
15425;SDS011;7812;50.072;7.036;2023-04-24T04:24:03;4.93;;;4.53;;
15425;SDS011;7812;50.072;7.036;2023-04-24T04:26:31;5.43;;;4.27;;
15425;SDS011;7812;50.072;7.036;2023-04-24T04:28:58;6.27;;;4.23;;
15425;SDS011;7812;50.072;7.036;2023-04-24T04:31:25;4.77;;;4.27;;
15425;SDS011;7812;50.072;7.036;2023-04-24T04:33:51;5.10;;;4.23;;
15425;SDS011;7812;50.072;7.036;2023-04-24T04:36:16;5.83;;;4.77;;
15425;SDS011;7812;50.072;7.036;2023-04-24T04:38:42;4.80;;;4.30;;
15425;SDS011;7812;50.072;7.036;2023-04-24T04:41:09;7.20;;;4.77;;
15425;SDS011;7812;50.072;7.036;2023-04-24T04:43:35;5.00;;;4.50;;
15425;SDS011;7812;50.072;7.036;2023-04-24T04:46:01;5.90;;;4.50;;
15425;SDS011;7812;50.072;7.036;2023-04-24T04:48:29;8.03;;;4.77;;
15425;SDS011;7812;50.072;7.036;2023-04-24T04:50:56;4.83;;;4.43;;
15425;SDS011;7812;50.072;7.036;2023-04-24T04:53:22;6.67;;;4.77;;
15425;SDS011;7812;50.072;7.036;2023-04-24T04:55:48;4.70;;;4.27;;
15425;SDS011;7812;50.072;7.036;2023-04-24T04:58:14;6.50;;;5.47;;
15425;SDS011;7812;50.072;7.036;2023-04-24T05:00:41;5.60;;;4.70;;
15425;SDS011;7812;50.072;7.036;2023-04-24T05:03:08;5.20;;;4.53;;
15425;SDS011;7812;50.072;7.036;2023-04-24T05:05:34;5.37;;;4.87;;
15425;SDS011;7812;50.072;7.036;2023-04-24T05:08:00;5.80;;;5.20;;
15425;SDS011;7812;50.072;7.036;2023-04-24T05:10:25;5.60;;;5.10;;
15425;SDS011;7812;50.072;7.036;2023-04-24T05:12:51;7.10;;;4.73;;
15425;SDS011;7812;50.072;7.036;2023-04-24T05:15:17;5.67;;;5.00;;
15425;SDS011;7812;50.072;7.036;2023-04-24T05:17:42;6.00;;;5.40;;
15425;SDS011;7812;50.072;7.036;2023-04-24T05:20:08;8.33;;;5.50;;
15425;SDS011;7812;50.072;7.036;2023-04-24T05:22:34;7.30;;;5.57;;
15425;SDS011;7812;50.072;7.036;2023-04-24T05:25:01;6.57;;;5.70;;
15425;SDS011;7812;50.072;7.036;2023-04-24T05:27:27;5.83;;;5.07;;
15425;SDS011;7812;50.072;7.036;2023-04-24T05:29:53;6.30;;;5.40;;
15425;SDS011;7812;50.072;7.036;2023-04-24T05:32:18;6.17;;;5.57;;
15425;SDS011;7812;50.072;7.036;2023-04-24T05:34:44;7.17;;;5.93;;
15425;SDS011;7812;50.072;7.036;2023-04-24T05:37:10;9.67;;;6.00;;
15425;SDS011;7812;50.072;7.036;2023-04-24T05:39:36;6.37;;;5.77;;
15425;SDS011;7812;50.072;7.036;2023-04-24T05:42:02;6.20;;;5.60;;
15425;SDS011;7812;50.072;7.036;2023-04-24T05:44:29;6.00;;;5.17;;
15425;SDS011;7812;50.072;7.036;2023-04-24T05:46:55;6.10;;;5.50;;
15425;SDS011;7812;50.072;7.036;2023-04-24T05:49:21;7.20;;;5.73;;
15425;SDS011;7812;50.072;7.036;2023-04-24T05:51:47;7.70;;;5.80;;
15425;SDS011;7812;50.072;7.036;2023-04-24T05:54:13;6.53;;;5.80;;
15425;SDS011;7812;50.072;7.036;2023-04-24T05:56:39;5.67;;;5.17;;
15425;SDS011;7812;50.072;7.036;2023-04-24T05:59:05;6.57;;;5.13;;
15425;SDS011;7812;50.072;7.036;2023-04-24T06:01:31;5.73;;;5.03;;
15425;SDS011;7812;50.072;7.036;2023-04-24T06:03:57;5.87;;;4.60;;
15425;SDS011;7812;50.072;7.036;2023-04-24T06:06:23;6.07;;;4.80;;
15425;SDS011;7812;50.072;7.036;2023-04-24T06:08:49;5.60;;;4.87;;
15425;SDS011;7812;50.072;7.036;2023-04-24T06:11:15;7.13;;;5.63;;
15425;SDS011;7812;50.072;7.036;2023-04-24T06:13:40;5.40;;;4.90;;
15425;SDS011;7812;50.072;7.036;2023-04-24T06:16:06;5.03;;;4.53;;
15425;SDS011;7812;50.072;7.036;2023-04-24T06:18:32;5.00;;;4.50;;
15425;SDS011;7812;50.072;7.036;2023-04-24T06:20:58;5.00;;;4.50;;
15425;SDS011;7812;50.072;7.036;2023-04-24T06:23:23;5.47;;;4.87;;
15425;SDS011;7812;50.072;7.036;2023-04-24T06:25:49;4.70;;;4.30;;
15425;SDS011;7812;50.072;7.036;2023-04-24T06:28:15;4.53;;;4.10;;
15425;SDS011;7812;50.072;7.036;2023-04-24T06:30:40;4.27;;;3.87;;
15425;SDS011;7812;50.072;7.036;2023-04-24T06:33:06;4.73;;;4.33;;
15425;SDS011;7812;50.072;7.036;2023-04-24T06:35:32;4.20;;;3.73;;
15425;SDS011;7812;50.072;7.036;2023-04-24T06:37:57;4.50;;;4.10;;
15425;SDS011;7812;50.072;7.036;2023-04-24T06:40:23;4.37;;;3.80;;
15425;SDS011;7812;50.072;7.036;2023-04-24T06:42:49;4.43;;;3.77;;
15425;SDS011;7812;50.072;7.036;2023-04-24T06:45:15;4.97;;;4.03;;
15425;SDS011;7812;50.072;7.036;2023-04-24T06:47:40;3.90;;;3.43;;
15425;SDS011;7812;50.072;7.036;2023-04-24T06:50:06;4.50;;;4.10;;
15425;SDS011;7812;50.072;7.036;2023-04-24T06:52:32;4.13;;;3.83;;
15425;SDS011;7812;50.072;7.036;2023-04-24T06:55:01;4.10;;;3.70;;
15425;SDS011;7812;50.072;7.036;2023-04-24T06:57:28;4.07;;;3.70;;
15425;SDS011;7812;50.072;7.036;2023-04-24T06:59:54;6.60;;;4.03;;
15425;SDS011;7812;50.072;7.036;2023-04-24T07:02:19;4.80;;;3.97;;
15425;SDS011;7812;50.072;7.036;2023-04-24T07:04:45;5.23;;;3.43;;
15425;SDS011;7812;50.072;7.036;2023-04-24T07:07:11;4.60;;;3.67;;
15425;SDS011;7812;50.072;7.036;2023-04-24T07:09:39;4.73;;;4.07;;
15425;SDS011;7812;50.072;7.036;2023-04-24T07:12:07;3.97;;;3.57;;
15425;SDS011;7812;50.072;7.036;2023-04-24T07:14:33;4.00;;;3.70;;
15425;SDS011;7812;50.072;7.036;2023-04-24T07:16:59;4.63;;;3.63;;
15425;SDS011;7812;50.072;7.036;2023-04-24T07:19:26;5.47;;;4.47;;
15425;SDS011;7812;50.072;7.036;2023-04-24T07:21:52;5.07;;;4.13;;
15425;SDS011;7812;50.072;7.036;2023-04-24T07:24:19;5.13;;;3.53;;
15425;SDS011;7812;50.072;7.036;2023-04-24T07:26:45;5.10;;;3.83;;
15425;SDS011;7812;50.072;7.036;2023-04-24T07:29:11;5.27;;;4.47;;
15425;SDS011;7812;50.072;7.036;2023-04-24T07:31:38;5.07;;;4.43;;
15425;SDS011;7812;50.072;7.036;2023-04-24T07:34:05;3.57;;;3.27;;
15425;SDS011;7812;50.072;7.036;2023-04-24T07:36:31;6.37;;;4.27;;
15425;SDS011;7812;50.072;7.036;2023-04-24T07:38:58;4.57;;;4.17;;
15425;SDS011;7812;50.072;7.036;2023-04-24T07:41:25;4.00;;;3.60;;
15425;SDS011;7812;50.072;7.036;2023-04-24T07:43:52;3.53;;;3.23;;
15425;SDS011;7812;50.072;7.036;2023-04-24T07:46:18;4.47;;;3.73;;
15425;SDS011;7812;50.072;7.036;2023-04-24T07:48:45;4.77;;;3.87;;
15425;SDS011;7812;50.072;7.036;2023-04-24T07:51:12;4.10;;;3.70;;
15425;SDS011;7812;50.072;7.036;2023-04-24T07:53:39;3.53;;;3.23;;
15425;SDS011;7812;50.072;7.036;2023-04-24T07:56:05;3.70;;;3.40;;
15425;SDS011;7812;50.072;7.036;2023-04-24T07:58:31;5.27;;;3.80;;
15425;SDS011;7812;50.072;7.036;2023-04-24T08:00:56;4.07;;;3.30;;
15425;SDS011;7812;50.072;7.036;2023-04-24T08:03:22;4.13;;;3.70;;
15425;SDS011;7812;50.072;7.036;2023-04-24T08:05:49;4.93;;;3.90;;
15425;SDS011;7812;50.072;7.036;2023-04-24T08:08:15;3.77;;;3.47;;
15425;SDS011;7812;50.072;7.036;2023-04-24T08:10:41;3.80;;;3.50;;
15425;SDS011;7812;50.072;7.036;2023-04-24T08:13:07;4.27;;;3.33;;
15425;SDS011;7812;50.072;7.036;2023-04-24T08:15:33;5.23;;;3.77;;
15425;SDS011;7812;50.072;7.036;2023-04-24T08:17:58;3.73;;;2.80;;
15425;SDS011;7812;50.072;7.036;2023-04-24T08:20:24;6.43;;;3.67;;
15425;SDS011;7812;50.072;7.036;2023-04-24T08:22:50;3.30;;;3.00;;
15425;SDS011;7812;50.072;7.036;2023-04-24T08:25:16;4.97;;;3.93;;
15425;SDS011;7812;50.072;7.036;2023-04-24T08:27:44;3.97;;;3.33;;
15425;SDS011;7812;50.072;7.036;2023-04-24T08:30:10;3.83;;;2.77;;
15425;SDS011;7812;50.072;7.036;2023-04-24T08:32:36;4.53;;;3.53;;
15425;SDS011;7812;50.072;7.036;2023-04-24T08:35:02;5.37;;;3.27;;
15425;SDS011;7812;50.072;7.036;2023-04-24T08:37:28;4.33;;;3.93;;
15425;SDS011;7812;50.072;7.036;2023-04-24T08:39:54;3.77;;;3.40;;
15425;SDS011;7812;50.072;7.036;2023-04-24T08:42:20;4.07;;;3.27;;
15425;SDS011;7812;50.072;7.036;2023-04-24T08:44:46;3.90;;;3.30;;
15425;SDS011;7812;50.072;7.036;2023-04-24T08:50:31;4.53;;;3.53;;
15425;SDS011;7812;50.072;7.036;2023-04-24T08:52:57;3.47;;;2.97;;
15425;SDS011;7812;50.072;7.036;2023-04-24T08:55:23;3.23;;;2.93;;
15425;SDS011;7812;50.072;7.036;2023-04-24T08:57:50;3.03;;;2.33;;
15425;SDS011;7812;50.072;7.036;2023-04-24T09:00:21;2.30;;;2.10;;
15425;SDS011;7812;50.072;7.036;2023-04-24T09:02:47;2.23;;;2.03;;
15425;SDS011;7812;50.072;7.036;2023-04-24T09:05:16;2.73;;;2.20;;
15425;SDS011;7812;50.072;7.036;2023-04-24T09:07:44;2.67;;;1.87;;
15425;SDS011;7812;50.072;7.036;2023-04-24T09:10:14;2.07;;;1.70;;
15425;SDS011;7812;50.072;7.036;2023-04-24T09:12:40;2.40;;;2.20;;
15425;SDS011;7812;50.072;7.036;2023-04-24T09:15:07;2.00;;;1.87;;
15425;SDS011;7812;50.072;7.036;2023-04-24T09:17:34;2.10;;;1.90;;
15425;SDS011;7812;50.072;7.036;2023-04-24T09:20:00;1.67;;;1.57;;
15425;SDS011;7812;50.072;7.036;2023-04-24T09:22:28;2.43;;;1.87;;
15425;SDS011;7812;50.072;7.036;2023-04-24T09:25:04;2.20;;;1.90;;
15425;SDS011;7812;50.072;7.036;2023-04-24T09:27:32;1.97;;;1.77;;
15425;SDS011;7812;50.072;7.036;2023-04-24T09:29:59;2.37;;;1.53;;
15425;SDS011;7812;50.072;7.036;2023-04-24T09:32:25;2.43;;;1.90;;
15425;SDS011;7812;50.072;7.036;2023-04-24T09:37:35;2.53;;;2.00;;
15425;SDS011;7812;50.072;7.036;2023-04-24T09:42:59;2.60;;;1.70;;
15425;SDS011;7812;50.072;7.036;2023-04-24T09:45:37;2.87;;;2.07;;
15425;SDS011;7812;50.072;7.036;2023-04-24T09:48:04;3.90;;;2.00;;
15425;SDS011;7812;50.072;7.036;2023-04-24T09:50:32;2.83;;;1.80;;
15425;SDS011;7812;50.072;7.036;2023-04-24T09:53:01;2.40;;;2.13;;
15425;SDS011;7812;50.072;7.036;2023-04-24T09:55:28;2.47;;;2.27;;
15425;SDS011;7812;50.072;7.036;2023-04-24T09:57:57;2.47;;;2.27;;
15425;SDS011;7812;50.072;7.036;2023-04-24T10:00:28;3.70;;;2.80;;
15425;SDS011;7812;50.072;7.036;2023-04-24T10:05:24;3.03;;;2.70;;
15425;SDS011;7812;50.072;7.036;2023-04-24T10:07:55;3.00;;;2.67;;
15425;SDS011;7812;50.072;7.036;2023-04-24T10:10:32;5.10;;;3.40;;
15425;SDS011;7812;50.072;7.036;2023-04-24T10:12:59;4.27;;;3.13;;
15425;SDS011;7812;50.072;7.036;2023-04-24T10:15:25;2.50;;;2.30;;
15425;SDS011;7812;50.072;7.036;2023-04-24T10:17:52;3.43;;;3.07;;
15425;SDS011;7812;50.072;7.036;2023-04-24T10:20:19;4.60;;;3.13;;
15425;SDS011;7812;50.072;7.036;2023-04-24T10:22:50;4.20;;;3.33;;
15425;SDS011;7812;50.072;7.036;2023-04-24T10:25:20;3.00;;;2.73;;
15425;SDS011;7812;50.072;7.036;2023-04-24T10:27:49;5.13;;;3.53;;
15425;SDS011;7812;50.072;7.036;2023-04-24T10:30:15;4.93;;;3.40;;
15425;SDS011;7812;50.072;7.036;2023-04-24T10:32:42;5.60;;;3.70;;
15425;SDS011;7812;50.072;7.036;2023-04-24T10:35:08;4.43;;;3.27;;
15425;SDS011;7812;50.072;7.036;2023-04-24T10:37:39;4.03;;;3.63;;
15425;SDS011;7812;50.072;7.036;2023-04-24T10:40:08;4.63;;;3.60;;
15425;SDS011;7812;50.072;7.036;2023-04-24T10:42:35;3.63;;;2.87;;
15425;SDS011;7812;50.072;7.036;2023-04-24T10:45:05;3.70;;;2.63;;
15425;SDS011;7812;50.072;7.036;2023-04-24T10:47:41;3.67;;;3.30;;
15425;SDS011;7812;50.072;7.036;2023-04-24T10:50:10;8.57;;;2.90;;
15425;SDS011;7812;50.072;7.036;2023-04-24T10:52:45;4.07;;;3.30;;
15425;SDS011;7812;50.072;7.036;2023-04-24T10:55:15;4.00;;;3.60;;
15425;SDS011;7812;50.072;7.036;2023-04-24T10:58:00;3.70;;;2.87;;
15425;SDS011;7812;50.072;7.036;2023-04-24T11:00:29;6.07;;;3.40;;
15425;SDS011;7812;50.072;7.036;2023-04-24T11:02:55;4.30;;;3.20;;
15425;SDS011;7812;50.072;7.036;2023-04-24T11:05:22;6.33;;;3.30;;
15425;SDS011;7812;50.072;7.036;2023-04-24T11:08:11;6.23;;;3.17;;
15425;SDS011;7812;50.072;7.036;2023-04-24T11:10:45;3.67;;;3.00;;
15425;SDS011;7812;50.072;7.036;2023-04-24T11:13:15;5.03;;;3.43;;
15425;SDS011;7812;50.072;7.036;2023-04-24T11:15:42;3.40;;;3.10;;
15425;SDS011;7812;50.072;7.036;2023-04-24T11:18:14;5.03;;;3.77;;
15425;SDS011;7812;50.072;7.036;2023-04-24T11:20:44;4.30;;;3.50;;
15425;SDS011;7812;50.072;7.036;2023-04-24T11:23:12;3.17;;;2.87;;
15425;SDS011;7812;50.072;7.036;2023-04-24T11:25:38;3.77;;;3.00;;
15425;SDS011;7812;50.072;7.036;2023-04-24T11:28:04;3.50;;;2.80;;
15425;SDS011;7812;50.072;7.036;2023-04-24T11:30:31;4.63;;;3.03;;
15425;SDS011;7812;50.072;7.036;2023-04-24T11:33:02;5.20;;;3.43;;
15425;SDS011;7812;50.072;7.036;2023-04-24T11:35:29;3.33;;;2.50;;
15425;SDS011;7812;50.072;7.036;2023-04-24T11:37:55;4.63;;;3.10;;
15425;SDS011;7812;50.072;7.036;2023-04-24T11:40:22;3.40;;;3.10;;
15425;SDS011;7812;50.072;7.036;2023-04-24T11:42:49;3.60;;;3.20;;
15425;SDS011;7812;50.072;7.036;2023-04-24T11:47:46;4.00;;;3.00;;
15425;SDS011;7812;50.072;7.036;2023-04-24T11:50:14;3.47;;;3.07;;
15425;SDS011;7812;50.072;7.036;2023-04-24T11:52:42;3.83;;;2.80;;
15425;SDS011;7812;50.072;7.036;2023-04-24T11:57:44;4.30;;;3.17;;
15425;SDS011;7812;50.072;7.036;2023-04-24T12:00:35;6.70;;;3.20;;
15425;SDS011;7812;50.072;7.036;2023-04-24T12:03:04;3.97;;;2.40;;
15425;SDS011;7812;50.072;7.036;2023-04-24T12:05:36;4.40;;;2.83;;
15425;SDS011;7812;50.072;7.036;2023-04-24T12:08:05;2.43;;;1.87;;
15425;SDS011;7812;50.072;7.036;2023-04-24T12:10:32;5.33;;;2.90;;
15425;SDS011;7812;50.072;7.036;2023-04-24T12:12:58;3.70;;;2.50;;
15425;SDS011;7812;50.072;7.036;2023-04-24T12:15:25;2.90;;;2.67;;
15425;SDS011;7812;50.072;7.036;2023-04-24T12:17:51;2.10;;;1.90;;
15425;SDS011;7812;50.072;7.036;2023-04-24T12:20:23;6.23;;;2.80;;
15425;SDS011;7812;50.072;7.036;2023-04-24T12:22:58;4.57;;;2.97;;
15425;SDS011;7812;50.072;7.036;2023-04-24T12:25:30;5.10;;;2.73;;
15425;SDS011;7812;50.072;7.036;2023-04-24T12:30:31;4.83;;;3.00;;
15425;SDS011;7812;50.072;7.036;2023-04-24T12:32:58;7.00;;;2.63;;
15425;SDS011;7812;50.072;7.036;2023-04-24T12:35:26;4.37;;;3.00;;
15425;SDS011;7812;50.072;7.036;2023-04-24T12:37:53;4.90;;;3.07;;
15425;SDS011;7812;50.072;7.036;2023-04-24T12:40:19;3.67;;;3.00;;
15425;SDS011;7812;50.072;7.036;2023-04-24T12:42:47;3.70;;;3.20;;
15425;SDS011;7812;50.072;7.036;2023-04-24T12:45:15;6.70;;;3.57;;
15425;SDS011;7812;50.072;7.036;2023-04-24T12:47:42;4.30;;;3.23;;
15425;SDS011;7812;50.072;7.036;2023-04-24T12:50:10;4.47;;;2.70;;
15425;SDS011;7812;50.072;7.036;2023-04-24T12:52:37;3.83;;;2.67;;
15425;SDS011;7812;50.072;7.036;2023-04-24T12:55:04;3.80;;;2.97;;
15425;SDS011;7812;50.072;7.036;2023-04-24T12:57:33;4.27;;;3.20;;
15425;SDS011;7812;50.072;7.036;2023-04-24T13:00:00;4.00;;;3.17;;
15425;SDS011;7812;50.072;7.036;2023-04-24T13:02:28;3.50;;;3.20;;
15425;SDS011;7812;50.072;7.036;2023-04-24T13:04:55;4.93;;;3.33;;
15425;SDS011;7812;50.072;7.036;2023-04-24T13:07:21;5.03;;;3.40;;
15425;SDS011;7812;50.072;7.036;2023-04-24T13:09:48;4.93;;;3.17;;
15425;SDS011;7812;50.072;7.036;2023-04-24T13:12:14;4.53;;;3.37;;
15425;SDS011;7812;50.072;7.036;2023-04-24T13:14:40;6.00;;;3.67;;
15425;SDS011;7812;50.072;7.036;2023-04-24T13:17:06;3.67;;;2.40;;
15425;SDS011;7812;50.072;7.036;2023-04-24T13:19:36;5.03;;;3.20;;
15425;SDS011;7812;50.072;7.036;2023-04-24T13:22:03;4.97;;;3.30;;
15425;SDS011;7812;50.072;7.036;2023-04-24T13:24:30;3.33;;;3.00;;
15425;SDS011;7812;50.072;7.036;2023-04-24T13:26:56;3.57;;;2.83;;
15425;SDS011;7812;50.072;7.036;2023-04-24T13:29:23;2.97;;;2.67;;
15425;SDS011;7812;50.072;7.036;2023-04-24T13:31:52;2.97;;;2.43;;
15425;SDS011;7812;50.072;7.036;2023-04-24T13:34:20;2.93;;;2.60;;
15425;SDS011;7812;50.072;7.036;2023-04-24T13:36:46;4.67;;;3.60;;
15425;SDS011;7812;50.072;7.036;2023-04-24T13:39:12;4.10;;;3.50;;
15425;SDS011;7812;50.072;7.036;2023-04-24T13:41:38;3.47;;;2.70;;
15425;SDS011;7812;50.072;7.036;2023-04-24T13:44:04;3.73;;;3.23;;
15425;SDS011;7812;50.072;7.036;2023-04-24T13:46:31;5.97;;;3.33;;
15425;SDS011;7812;50.072;7.036;2023-04-24T13:48:57;5.40;;;3.70;;
15425;SDS011;7812;50.072;7.036;2023-04-24T13:51:25;2.20;;;1.97;;
15425;SDS011;7812;50.072;7.036;2023-04-24T13:53:54;3.83;;;3.13;;
15425;SDS011;7812;50.072;7.036;2023-04-24T13:56:20;4.73;;;3.10;;
15425;SDS011;7812;50.072;7.036;2023-04-24T13:58:46;5.20;;;3.60;;
15425;SDS011;7812;50.072;7.036;2023-04-24T14:01:12;4.20;;;3.13;;
15425;SDS011;7812;50.072;7.036;2023-04-24T14:03:38;4.43;;;2.83;;
15425;SDS011;7812;50.072;7.036;2023-04-24T14:06:04;5.53;;;3.00;;
15425;SDS011;7812;50.072;7.036;2023-04-24T14:08:29;5.13;;;3.10;;
15425;SDS011;7812;50.072;7.036;2023-04-24T14:10:55;3.20;;;2.90;;
15425;SDS011;7812;50.072;7.036;2023-04-24T14:13:21;4.10;;;3.60;;
15425;SDS011;7812;50.072;7.036;2023-04-24T14:15:46;3.70;;;3.30;;
15425;SDS011;7812;50.072;7.036;2023-04-24T14:18:12;4.53;;;2.87;;
15425;SDS011;7812;50.072;7.036;2023-04-24T14:20:39;2.80;;;2.27;;
15425;SDS011;7812;50.072;7.036;2023-04-24T14:23:05;3.40;;;2.70;;
15425;SDS011;7812;50.072;7.036;2023-04-24T14:25:32;3.27;;;2.97;;
15425;SDS011;7812;50.072;7.036;2023-04-24T14:27:57;3.30;;;2.87;;
15425;SDS011;7812;50.072;7.036;2023-04-24T14:30:23;4.17;;;2.60;;
15425;SDS011;7812;50.072;7.036;2023-04-24T14:32:49;4.00;;;2.53;;
15425;SDS011;7812;50.072;7.036;2023-04-24T14:35:15;3.73;;;2.80;;
15425;SDS011;7812;50.072;7.036;2023-04-24T14:37:41;2.83;;;2.50;;
15425;SDS011;7812;50.072;7.036;2023-04-24T14:40:08;3.70;;;2.63;;
15425;SDS011;7812;50.072;7.036;2023-04-24T14:42:34;3.27;;;2.40;;
15425;SDS011;7812;50.072;7.036;2023-04-24T14:45:00;2.63;;;2.37;;
15425;SDS011;7812;50.072;7.036;2023-04-24T14:47:26;2.67;;;2.47;;
15425;SDS011;7812;50.072;7.036;2023-04-24T14:49:52;3.77;;;2.60;;
15425;SDS011;7812;50.072;7.036;2023-04-24T14:52:18;3.83;;;2.47;;
15425;SDS011;7812;50.072;7.036;2023-04-24T14:54:44;3.37;;;3.07;;
15425;SDS011;7812;50.072;7.036;2023-04-24T14:57:10;4.10;;;2.83;;
15425;SDS011;7812;50.072;7.036;2023-04-24T14:59:36;2.87;;;2.47;;
15425;SDS011;7812;50.072;7.036;2023-04-24T15:02:01;3.13;;;2.57;;
15425;SDS011;7812;50.072;7.036;2023-04-24T15:04:27;2.67;;;2.47;;
15425;SDS011;7812;50.072;7.036;2023-04-24T15:06:54;3.07;;;2.40;;
15425;SDS011;7812;50.072;7.036;2023-04-24T15:09:20;3.23;;;2.30;;
15425;SDS011;7812;50.072;7.036;2023-04-24T15:11:48;3.73;;;2.77;;
15425;SDS011;7812;50.072;7.036;2023-04-24T15:14:14;3.70;;;2.90;;
15425;SDS011;7812;50.072;7.036;2023-04-24T15:16:41;2.27;;;2.03;;